Regional Weather Synopsis
Issued by NWS Denver/Boulder, CO

Home | Current Version | Previous Version | Text Only | Print | Product List | Glossary On
Versions: 1 2 3 4 5 6 7 8 9 10 11 12 13 14 15 16 17 18 19 20 21 22 23 24 25 26 27 28 29 30 31 32 33 34 35 36 37 38 39 40 41 42 43 44 45 46 47 48 49 50
000
NZUS99 KBOU 230707
SYNBOU

Hot-Air Balloon Forecast for Colorado
National Weather Service Denver/Boulder, Colorado
0005 MST Saturday, February 23, 2019


* * * * * Northeast Colorado * * * * *

METAR KFNL 230656Z AUTO 00000KT 4SM -SN BR FEW049 OVC060 M05/M07 A2984
       RMK AO2 SNB43 SLP137 P0000 T10501067 410171067 FZRANO
METAR KFNL 230556Z AUTO 21003KT 6SM BR SCT065 BKN100 M06/M07 A2983 RMK
       AO2 SLP138 60000 T10561072 11039 21056 51001 FZRANO
METAR KFNL 230456Z AUTO 25005KT 5SM BR FEW060 OVC075 M05/M07 A2983 RMK
       AO2 SNE48 SLP138 P0000 T10501067 FZRANO

METAR KGXY 230656Z AUTO 23004KT 2 1/2SM -SN BR SCT030 OVC037 M04/M06
       A2986 RMK AO2 SNB08 SLP159 P0000 T10441056 410281072
       FZRANO
SPECI KGXY 230642Z AUTO 26003KT 2 1/2SM -SN BR OVC032 M04/M06 A2985 RMK
       AO2 SNB08 P0000 FZRANO
SPECI KGXY 230634Z AUTO 27003KT 2 1/2SM -SN BR BKN029 OVC037 M04/M06
       A2984 RMK AO2 SNB08 P0000 FZRANO

METAR KLMO 230655Z AUTO 00000KT 2SM -SN OVC012 M03/M05 A2985 RMK AO2
       T10321049
METAR KLMO 230635Z AUTO 00000KT 2SM -SN BKN014 OVC019 M03/M05 A2985 RMK
       AO2 T10331050
METAR KLMO 230615Z AUTO 00000KT 5SM -SN BKN029 BKN036 OVC042 M03/M05
       A2985 RMK AO2 T10351052

METAR KBDU 230654Z AUTO 00000KT 1 1/2SM -SN OVC008 M04/M04 A2982 RMK AO2
       P0002
METAR KBDU 230630Z AUTO 00000KT 1 1/4SM -SN OVC008 M04/M04 A2982 RMK AO2
       P0001
METAR KBDU 230612Z AUTO 00000KT 1 3/4SM -SN SCT012 OVC017 M04/M05 A2982
       RMK AO2

METAR KEIK 230653Z AUTO 00000KT 1 1/4SM -SN OVC007 M04/M05 A2987 RMK AO2
       T10421049
METAR KEIK 230636Z AUTO 00000KT 1 1/4SM -SN OVC005 M04/M05 A2988 RMK AO2
       T10431050
METAR KEIK 230618Z AUTO 00000KT 1SM -SN OVC005 M04/M05 A2988 RMK AO2
       T10451051

KBJC 230557Z 2306/2406 VRB03KT 2SM -SN BR BKN010 OVC020
      TEMPO 2306/2308 3/4SM -SN BR OVC006
     FM230900 VRB05KT 5SM -SN BR SCT015 BKN025 OVC040
     FM231100 VRB05KT P6SM SCT020 BKN080
     FM231400 21005KT P6SM FEW020 BKN120
     FM231800 31012G20KT P6SM SCT220
      TEMPO 2321/2324 32018G32KT
     FM240200 10006KT P6SM FEW220
METAR KBJC 230651Z AUTO 27003KT 1 1/2SM BKN007 M05/M05 A2981 RMK AO2
       PWINO
METAR KBJC 230634Z AUTO 00000KT 1 1/2SM OVC007 M05/M05 A2981 RMK AO2
       PWINO
METAR KBJC 230612Z AUTO 00000KT 1 1/4SM OVC005 M05/M05 A2981 RMK AO2
       PWINO

KDEN 230659Z 2307/2412 27005KT 2SM -SN BR BKN010 OVC015
      TEMPO 2307/2309 3/4SM -SN BR OVC007
     FM231000 23005KT 5SM -SN BR BKN020 OVC035
     FM231200 19005KT P6SM SCT006 BKN015 BKN070
     FM231600 26008KT P6SM SCT220
     FM231900 01012KT P6SM SCT220
     FM232100 32015G21KT P6SM FEW220
      TEMPO 2322/2324 28016G26KT
     FM240200 33008KT P6SM FEW120
METAR KDEN 230653Z 30008KT 1/4SM R35L/P6000FT -SN BR SCT007 OVC010
       M05/M06 A2979 RMK AO2 SFC VIS 3/4 SLP113 P0005 T10501061
       410221061
SPECI KDEN 230604Z 00000KT 1/4SM R35L/3500V6000FT SN FZFG VV009 M06/M06
       A2980 RMK AO2 SFC VIS 1/2 P0001 T10561061
METAR KDEN 230553Z 35003KT 1/4SM R35L/5000V5500FT -SN BR VV011 M05/M06
       A2980 RMK AO2 SFC VIS 3/4 SLP117 P0003 60035 T10501061 11044
       21056 50002


KBKF 230553Z 2305/2407 01009KT 1600 -SN BKN002 620109 QNH2975INS
     BECMG 2308/2309 35012G18KT 6000 -SN BKN010 OVC020 620109
     QNH2975INS
     BECMG 2312/2313 33010G15KT 9999 NSW BKN080 620806
     QNH2980INS
     BECMG 2317/2318 33012G18KT 9999 SCT080 QNH2984INS
     BECMG 2405/2406 30009KT 9999 FEW100 QNH2990INS TX00/2321Z
     TNM07/2312Z
METAR KBKF 230658Z 31004KT 3/4SM R32/5000FT -SN BR VV010 M06/M06 A2979
       RMK AO2A SLP110 P0003 T10601060 400071065
METAR KBKF 230558Z 33004KT 3/4SM R32/4000FT -SN BR VV007 M06/M06 A2980
       RMK AO2A SLP118 P0004 60070 4/007 T10611061 11052 21061
       50002
METAR KBKF 230458Z 34003KT 1/2SM R32/2400FT SN FZFG VV002 M06/M06 A2981
       RMK AO2A SLP127 SNINCR 2/7 P0019 T10601060

KAPA 230525Z 2306/2406 03005KT 2SM -SN BR FEW005 OVC010
      TEMPO 2306/2308 1SM -SN BR VV005
     FM230900 34005KT 3SM -SN BR OVC010
     FM231500 19005KT P6SM SCT150
     FM231800 33012G20KT P6SM SCT200
      TEMPO 2319/2323 33018G32KT
     FM240200 08006KT P6SM FEW200
METAR KAPA 230653Z 32005KT 1/2SM -SN BR VV011 M06/M07 A2978 RMK AO2 SFC
       VIS 3/4 SLP120 P0004 T10611067 400281083
METAR KAPA 230553Z 36003KT 1/2SM -SN BR VV010 M06/M07 A2979 RMK AO2 SFC
       VIS 3/4 SLP128 P0003 60023 T10611067 11050 21061 50003
SPECI KAPA 230530Z 35003KT 1/2SM -SN BR VV012 M06/M07 A2979 RMK AO2 SFC
       VIS 3/4 P0002 T10611067

METAR KMNH 230647Z AUTO 31008KT 1SM -SN OVC004 M08/M09 A2975 RMK AO2
METAR KMNH 230624Z AUTO 32008KT 1SM SN OVC002 M08/M09 A2974 RMK AO2
METAR KMNH 230606Z AUTO 32008KT 1/2SM +SN OVC002 M08/M09 A2975 RMK
       AO2

METAR KFMM 230655Z AUTO 36008KT 3SM -SN M05/M06 A2982 RMK AO2
       T10471056
METAR KFMM 230635Z AUTO 36007KT 2 1/2SM -SN M05/M05 A2983 RMK AO2
       T10471055
METAR KFMM 230615Z AUTO 02007KT 1 1/4SM -SN M05/M05 A2983 RMK AO2
       T10471055

METAR KSTK 230650Z AUTO 03004KT 1 3/4SM -SN BKN005 OVC009 A2983 RMK AO2
       P0001
METAR KSTK 230630Z AUTO 02005KT 1 1/4SM -SN OVC003 A2983 RMK AO2
       P0001
METAR KSTK 230610Z AUTO 01003KT 1SM SN OVC003 A2985 RMK AO2 P0001

METAR KAKO 230653Z AUTO 01013KT 3SM -SN BR OVC010 M05/M06 A2979 RMK AO2
       SLP125 P0002 T10501061 410281078
SPECI KAKO 230632Z AUTO 36012KT 4SM -SN BR BKN010 OVC018 M05/M06 A2980
       RMK AO2 P0001 T10501061
SPECI KAKO 230620Z AUTO 36011KT 2 1/2SM -SN BR BKN009 OVC016 M05/M06
       A2980 RMK AO2 P0001 T10501061

METAR KLIC 230651Z AUTO 35015KT 1 1/2SM -SN BR OVC016 M05/M06 A2974
        RMK AO2 SNB08 SLP090 P0003 I1000 T10501056 400561056
SPECI KLIC 230650Z AUTO 35016KT 1 3/4SM -SN BR OVC016 M05/M06 A2974 RMK
       AO2 SNB08 P0003 I1000
METAR KLIC 230651Z AUTO 35015KT 1 1/2SM -SN BR OVC016 M05/M06 A2974 RMK
       AO2 SNB08 SLP090 P0003 I1000 T10501056 400561056

METAR KHEQ 230650Z AUTO 00000KT 4SM -SN OVC003 00/M01 A2986 RMK AO2
METAR KHEQ 230630Z AUTO 00000KT 2 1/2SM -SN OVC003 00/M01 A2985 RMK
       AO2
METAR KHEQ 230610Z AUTO 00000KT 1/2SM -SN OVC001 00/M01 A2985 RMK
       AO2

METAR K2V6 230654Z AUTO 04003KT 2 1/2SM -SN OVC002 M01/M01 A2980 RMK
       AO2
METAR K2V6 230629Z AUTO 04004KT 1SM UP OVC002 M01/M01 A2980 RMK AO2
METAR K2V6 230614Z AUTO 07003KT 1SM BR OVC002 M01/M01 A2981 RMK AO2

METAR K2V5 230655Z AUTO 05007KT 3SM BR OVC003 00/00 A2982 RMK AO2
METAR K2V5 230635Z AUTO 09007KT 2 1/2SM BR OVC003 00/00 A2983 RMK
       AO2
METAR K2V5 230615Z AUTO 09007KT 4SM BR OVC003 00/00 A2983 RMK AO2

METAR KITR 230453Z AUTO 05005KT 1/2SM FG VV002 01/01 A2980 RMK AO2
       SLP100 T00110006
SPECI KITR 230431Z AUTO 08004KT 1/2SM FG VV002 01/01 A2980 RMK AO2
       T00110006
SPECI KITR 230420Z AUTO 09005KT 1 3/4SM BR OVC002 02/01 A2980 RMK AO2
       T00170006

Sunrise/Sunset for 02/23/2019
Fort Collins - 06:42:52 MST / 17:44:22 MST
Denver       - 06:41:31 MST / 17:44:52 MST
Sterling     - 06:35:33 MST / 17:36:51 MST

Denver/Boulder (KFTG) 02/23/19 06:54 UTC
Radar VAD winds      Height      Dir/Spd(kt)
                  28000 FT MSL...192/059
                  26000 FT MSL...198/050
                  25000 FT MSL...199/047
                  24000 FT MSL...193/044
                  22000 FT MSL...193/040
                  20000 FT MSL...188/039
                  19000 FT MSL...186/040
                  18000 FT MSL...188/039
                  17000 FT MSL...189/033
                  16800 FT MSL...189/031
                  16000 FT MSL...189/021
                  15000 FT MSL...193/009
                  13000 FT MSL...047/008
                  12700 FT MSL...044/010
                  12000 FT MSL...032/012
                  11200 FT MSL...019/014
                  11000 FT MSL...024/013
                  10000 FT MSL...035/011
                  10000 FT MSL...036/011
                   9000 FT MSL...026/013
                   8900 FT MSL...028/013
                   8100 FT MSL...023/014
                   8000 FT MSL...023/014
                   7300 FT MSL...009/011
                   7000 FT MSL...358/010
                   6600 FT MSL...347/009
                   6200 FT MSL...309/008
                   6000 FT MSL...316/008
                   5900 FT MSL...304/008

Denver/Boulder Aviation Discussion
Issued at 0349 UTC Saturday, February 23, 2019

.AVIATION...(For the 06Z TAFS through 06Z Saturday night)
Issued at 842 PM MST Fri Feb 22 2019
Heaviest snow has moved se of DIA but light to moderate snow will
continue for a few more hours with additional accumulations up to
2". Snow should begin to decrease by midnight.


* * * * * Southeast Colorado * * * * *

METAR K4BM 230654Z AUTO 02006KT 3/4SM SN OVC003 M10/M12 A2967 RMK AO2
       LTG DSNT N AND NW
METAR K4BM 230636Z AUTO 01007KT 1 1/2SM -SN OVC003 M10/M12 A2969 RMK AO2
       LTG DSNT NW
METAR K4BM 230612Z AUTO 36004KT 1SM SN OVC003 M10/M12 A2969 RMK AO2 LTG
       DSNT N AND NW

METAR KAFF 230658Z AUTO 36016KT 2 1/2SM -SN BR OVC011 M06/M08 A2971 RMK
       AO2 VIS 1 7/8V2 1/2 SLP099 P0000 T10641078 400401099
SPECI KAFF 230653Z AUTO 35014KT 2SM -SN BR OVC010 M06/M08 A2971 RMK AO2
       VIS 1 1/2V2 SLP099

KCOS 230600Z 2306/2406 34015G30KT 3SM -SN BR SCT010 OVC020
      TEMPO 2306/2310 1SM -SN BR OVC010
     FM231200 35028G38KT P6SM VCSH SCT020 OVC040
     FM231600 35020G30KT P6SM SCT040 BKN090
     FM232000 35012G22KT P6SM SKC
     FM240300 36008KT P6SM SKC
METAR KCOS 230654Z 33018G27KT 1/2SM R17L/4000V5000FT SN FZFG VV008
       M05/M07 A2971 RMK AO2 PK WND 34027/0650 SLP094 SNINCR 1/2
       P0005 T10501072 400501072
SPECI KCOS 230634Z 34016G24KT 1/2SM R17L/4500V5000FT SN FZFG VV009
       M05/M07 A2971 RMK AO2 PK WND 34027/0616 P0002 T10501067
SPECI KCOS 230610Z 34017G27KT 1/2SM R17L/4500V6000FT -SN BR BKN012
       OVC025 M05/M07 A2972 RMK AO2 PK WND 33027/0606 SFC VIS 3/4
       P0001 T10501067

METAR KABH 230656Z AUTO 02018G25KT -SN OVC016 A2969 RMK AO2 SLPNO P0000
       $
SPECI KABH 230653Z AUTO 02019G25KT -SN OVC016 A2968 RMK AO2 P0000 $
METAR KABH 230556Z AUTO 02014KT -SN A2968 RMK AO2 SLPNO P0000 60000
       58006 $

METAR KFLY 230655Z AUTO 35015G20KT 3/4SM SN OVC008 M06/M08 A2971 RMK AO2
       T10651078 400411080
METAR KFLY 230635Z AUTO 35017G23KT 1SM -SN OVC012 M06/M08 A2970 RMK AO2
       T10631079
METAR KFLY 230615Z AUTO 34016G23KT 1 3/4SM -SN BKN014 OVC022 M06/M08
       A2970 RMK AO2 T10611080

KFCS 230552Z 2305/2411 35015G25KT 1600 -SN BKN016 OVC030 620309
     520009 QNH2963INS
     TEMPO 2308/2313 35025G35KT 560009
     BECMG 2312/2313 34015G25KT 9999 NSW SCT020 BKN080 620806
     520009 QNH2968INS
     TEMPO 2313/2315 34025G35KT 560009
     BECMG 2315/2316 35012G18KT 9999 SCT080 QNH2976INS
     BECMG 2401/2402 30009KT 9999 SKC QNH2980INS TX07/2322Z
     TNM07/2312Z
METAR KFCS 230658Z 02017G25KT 7/8SM -SN BR VV006 M05/M05 A2969 RMK
        AO2A PK WND 01031/03 SLP106 P0000 T10461054 400581066 $
SPECI KFCS 230702Z 02017KT 7/8SM -SN BR VV005 M04/M05 A2969 RMK AO2A
        CIG 005V007 SLP101 $
METAR KFCS 230658Z 02017G25KT 7/8SM -SN BR VV006 M05/M05 A2969 RMK AO2A
       PK WND 01031/03 SLP106 P0000 T10461054 400581066 $

KPUB 230651Z 2307/2406 01020G33KT 3SM -SN BR SCT015 OVC030
      TEMPO 2307/2311 1SM -SN BR OVC015
     FM231200 35030G40KT P6SM VCSH SCT020 BKN040
     FM231600 35020G30KT P6SM SCT050 BKN100
     FM232000 34012G22KT P6SM SKC
     FM240300 32010KT P6SM SKC
METAR KPUB 230653Z 01024G35KT 1SM R08R/P6000FT -SN BR SCT015 OVC028
       M02/M04 A2969 RMK AO2 PK WND 36035/0627 UPB16E22SNB22 SLP062
       P0000 T10171039 400831039
SPECI KPUB 230628Z 01028G35KT 1 3/4SM -SN OVC015 M01/M04 A2968 RMK AO2
       PK WND 36035/0627 UPB16E22SNB22 P0000 T10061039
METAR KPUB 230553Z 01024G33KT 10SM BKN016 BKN032 OVC110 M01/M04 A2969
       RMK AO2 PK WND 01035/0514 SLP063 T10061044 10067 21006
       53001


METAR KTAD 230654Z AUTO 32008KT 10SM SCT049 BKN060 02/00 A2960 RMK AO2
       SLP994 T00170000 401281094
METAR KTAD 230554Z AUTO 24006KT 10SM FEW027 BKN090 OVC110 02/M01 A2962
       RMK AO2 SLP013 T00221006 10089 20017 58017
METAR KTAD 230454Z AUTO 18004KT 10SM FEW120 02/M02 A2965 RMK AO2 SLP029
       T00221017

METAR KLHX 230653Z AUTO 09014KT 8SM CLR 03/01 A2965 RMK AO2 SLP033
       T00280011 401281061
METAR KLHX 230553Z AUTO 09009KT 9SM FEW060 03/01 A2967 RMK AO2 SLP045
       T00280011 10117 20028 58002
METAR KLHX 230453Z AUTO 12012KT 10SM CLR 03/01 A2969 RMK AO2 SLP052
       T00280006

METAR KLAA 230653Z AUTO 11007KT 3SM BR OVC004 03/02 A2970 RMK AO2 SLP057
       T00330022 401001011
SPECI KLAA 230610Z AUTO 17004KT 4SM BR OVC004 03/02 A2973 RMK AO2
       T00330022
METAR KLAA 230553Z AUTO 13009KT 5SM BR OVC005 03/02 A2971 RMK AO2 SLP056
       T00330017 10061 20011 50000

METAR KSPD 230656Z AUTO 17015KT 01/01 A2965 RMK AO1 SLP036 T00060006
       400781072
METAR KSPD 230556Z AUTO 18014G21KT 01/01 A2970 RMK AO1 SLP056 T00060006
       10050 20000 56007
METAR KSPD 230456Z AUTO 16016KT 01/01 A2970 RMK AO1 SLP059 T00060006

Sunrise/Sunset for 02/23/2019
Burlington - 06:30:18 MST / 17:34:35 MST
Pueblo     - 06:38:34 MST / 17:45:05 MST
Lamar      - 06:30:22 MST / 17:37:16 MST

Pueblo (KPUX) 02/23/19 06:48 UTC
Radar VAD winds      Height      Dir/Spd(kt)
                  29000 FT MSL...200/054
                  27000 FT MSL...188/066
                  25000 FT MSL...196/055
                  24000 FT MSL...195/054
                  23000 FT MSL...195/052
                  22000 FT MSL...193/051
                  21000 FT MSL...193/045
                  20000 FT MSL...189/045
                  19000 FT MSL...188/039
                  18000 FT MSL...185/040
                  17000 FT MSL...182/042
                  16000 FT MSL...182/043
                  15000 FT MSL...182/043
                  14000 FT MSL...183/042
                  13200 FT MSL...182/040
                  13000 FT MSL...182/039
                  12000 FT MSL...180/035
                  11600 FT MSL...180/033
                  11000 FT MSL...182/029
                  10000 FT MSL...185/022
                   9900 FT MSL...185/022
                   9000 FT MSL...180/015
                   8100 FT MSL...100/012
                   8000 FT MSL...103/012
                   7000 FT MSL...068/019
                   6400 FT MSL...029/024
                   6300 FT MSL...035/026
                   6000 FT MSL...024/025
                   5700 FT MSL...024/027

Pueblo Aviation Discussion
Issued at 0602 UTC Saturday, February 23, 2019

.AVIATION...(For the 06Z TAFS through 06Z Saturday night)
Issued at 1007 PM MST Fri Feb 22 2019
KALS:
Light snow showers are currently over KALS and will remain over and
around for a few hours. During this time MVFR and IFR conditions are
expected. In the morning hours, conditions will clear up, leaving
VFR conditions with gusty north to northwesterly winds.
KCOS:
Snowfall is currently falling over KCOS, expect that snowfall to
continue into the early morning hours. During this time period IFR
to LIFR conditions are possible. Conditions improve in the later
morning hours, remaining VFR throughout the rest of the forecast
period. Gusty northerly winds will form in the morning hours and
will last throughout the forecast period.
KPUB:
Some flurries have already been observed outside of the weather
office, but a mix of rain and snow is expected initially.
Precipitation will turn to all snow an hour or so later. IFR to LIFR
conditions are possible during the precipitation period. Conditions
improve to VFR during the morning hours and will remain that way
through the morning hours. Gusty northerly winds will form during
the morning hours and will remain throughout the day.


* * * * * Northwest Colorado * * * * *

METAR KCAG 230653Z AUTO 30004KT 10SM M12/M14 A2993 RMK AO2 SLP201
       T11171144 410441128 $
METAR KCAG 230553Z AUTO VRB05KT 10SM SCT120 M12/M15 A2990 RMK AO2 SLP193
       60000 T11171150 11067 21128 51008
METAR KCAG 230453Z AUTO 21006KT 10SM CLR M12/M15 A2989 RMK AO2 SLP191
       T11171150

METAR KHDN 230656Z AUTO 00000KT 10SM OVC020 M12/M14 A2991 RMK AO2
       SNB32E45 SLP183 P0000 T11171139 FZRANO
SPECI KHDN 230610Z AUTO 00000KT 10SM BKN020 M13/M15 A2989 RMK AO2
       FZRANO
METAR KHDN 230556Z AUTO 27003KT 10SM FEW022 BKN085 M13/M15 A2989 RMK AO2
       SLP184 60000 T11281150 11083 21128 410391128 51010 FZRANO

METAR KSBS 230655Z AUTO 00000KT 4SM SCT021 OVC035 M11/M13 A2987 RMK AO1
       T11101130
METAR KSBS 230635Z AUTO 00000KT 2 1/2SM OVC037 M11/M13 A2986 RMK AO1 VIS
       1 1/2V3 T11111129
METAR KSBS 230615Z AUTO 00000KT 2SM OVC037 M11/M12 A2986 RMK AO1 VIS 1
       1/2V3 T11071125

METAR KC07 230647Z AUTO 32009G16KT 290V350 5SM -SN OVC001 M15/M16 A2969
       RMK AO2
METAR KC07 230624Z AUTO 33009G17KT 280V350 5SM -SN OVC001 M14/M16 A2970
       RMK AO2
METAR KC07 230606Z AUTO 33010G17KT 7SM -SN OVC001 M15/M16 A2969 RMK
       AO2

METAR K33V 230655Z AUTO 36014KT 10SM SCT033 SCT065 BKN120 M13/M15 A2977
       RMK AO1
METAR K33V 230635Z AUTO 35011KT 10SM SCT024 SCT035 BKN060 M13/M15 A2977
       RMK AO1
METAR K33V 230615Z AUTO 35011KT 10SM SCT022 OVC065 M13/M15 A2977 RMK
       AO1

METAR KEEO 230653Z AUTO 04003KT 10SM CLR M13/M16 A2989 RMK AO2 SLP171
        T11281161 410281128
METAR KEEO 230553Z AUTO 00000KT 10SM OVC100 M09/M13 A2988 RMK AO2 SLP161
       60000 T10891128 11050 21094 53013
METAR KEEO 230453Z AUTO 03006KT 10SM SCT080 BKN120 M09/M13 A2985 RMK AO2
       SLP153 T10891133

METAR K20V 230652Z AUTO 00000KT 10SM OVC050 M07/M10 A2979 RMK AO2
METAR K20V 230629Z AUTO 00000KT 10SM SCT050 OVC070 M07/M10 A2978 RMK
       AO2
METAR K20V 230612Z AUTO 24006KT 10SM SCT046 OVC070 M07/M10 A2977 RMK
       AO2

METAR KGNB 230650Z AUTO 07004KT 10SM OVC032 M08/M10 A2974 RMK AO2
       T10841098 410201149
METAR KGNB 230630Z AUTO 00000KT 10SM -SN BKN030 BKN038 OVC050 M08/M10
       A2974 RMK AO2 T10811096
METAR KGNB 230610Z AUTO 23004KT 10SM -SN SCT027 BKN044 OVC070 M08/M10
       A2974 RMK AO2 T10811096

METAR K0CO 230706Z AUTO 31004KT OVC007 M15/M20 A2966 RMK AO2 PWINO
METAR K0CO 230642Z AUTO 24003KT OVC007 M15/M21 A2965 RMK AO2 P0001
       PWINO
METAR K0CO 230624Z AUTO 35007KT 311V051 OVC007 M15/M20 A2965 RMK AO2
       P0001 PWINO

KGJT 230535Z 2306/2406 26006KT P6SM VCSH OVC050
      TEMPO 2306/2307 3SM -SN OVC030
     FM230700 34005KT P6SM SCT060 BKN070
     FM230800 VRB05KT P6SM FEW070 SCT090
     FM232100 VRB05KT P6SM FEW250
METAR KGJT 230653Z AUTO 33003KT 10SM CLR M03/M06 A2985 RMK AO2 SLP122
       T10331061 400111039
METAR KGJT 230553Z AUTO 00000KT 10SM OVC060 M02/M05 A2986 RMK AO2 SLP125
       60002 T10171050 10006 21022 53008
METAR KGJT 230453Z AUTO 26006KT 10SM OVC048 M02/M03 A2986 RMK AO2 SNE32
       SLP124 P0000 T10221033

KRIL 230535Z 2306/2406 29015KT P6SM BKN050 OVC070
     FM230800 30008KT P6SM SCT070 BKN080
     FM231700 VRB04KT P6SM FEW250
     FM232100 27007KT P6SM FEW050 SCT100
     FM240000 23005KT P6SM FEW050 SCT090
METAR KRIL 230653Z AUTO 30014KT 10SM OVC055 M04/M12 A2985 RMK AO2 SLP132
       T10441117 400111044
METAR KRIL 230553Z AUTO 29015G24KT 10SM OVC060 M04/M11 A2985 RMK AO2 PK
       WND 29028/0527 SLP128 T10391106 10000 21039 53014
METAR KRIL 230453Z AUTO 29015KT 10SM OVC070 M03/M10 A2982 RMK AO2 SLP119
       T10331100

METAR K5SM 230653Z AUTO 32007KT 1 1/4SM -SN OVC005 A2971 RMK AO2 LTG
       DSNT SE
METAR K5SM 230635Z AUTO 30007KT 1SM -SN OVC005 A2973 RMK AO2
METAR K5SM 230612Z AUTO 29005KT 1 1/4SM -SN SCT002 OVC007 A2975 RMK
       AO2

KEGE 230535Z 2306/2406 VRB04KT P6SM VCSH BKN010 OVC040
      TEMPO 2306/2309 2SM -SN BKN010 OVC020
     FM230900 10005KT P6SM BKN025 OVC050
     FM231200 VRB04KT P6SM SCT050 BKN080
     FM231800 VRB03KT P6SM FEW250
     FM240000 25013KT P6SM SCT045 BKN060
METAR KEGE 230656Z AUTO 34003KT 1 1/2SM -SN BR OVC020 M05/M06 A2980 RMK
       AO2 SLP136 P0002 T10501061 FZRANO
SPECI KEGE 230624Z AUTO 00000KT 2SM -SN BR OVC018 M05/M06 A2981 RMK AO2
       VIS 1 3/4V3 P0001 FZRANO
SPECI KEGE 230608Z AUTO 00000KT 1 1/2SM -SN BR OVC016 M05/M06 A2981 RMK
       AO2 P0000 FZRANO

KASE 230535Z 2306/2406 36006KT 1SM -SN BR BKN010 OVC020
     FM230900 VRB04KT P6SM VCSH BKN010 OVC030
     FM231100 VRB04KT P6SM BKN015 OVC050
     FM231400 VRB03KT P6SM SCT020 BKN070
     FM231600 VRB04KT P6SM SCT070
SPECI KASE 230701Z AUTO 01005KT 1 1/2SM -SN BR OVC014 M07/M09 A2972 RMK
       AO2 P0000 T10721089
METAR KASE 230653Z AUTO 01007KT 2SM -SN BR OVC014 M07/M09 A2971 RMK AO2
       SLP058 P0000 T10721089 410061072
METAR KASE 230553Z AUTO 02006KT 1 1/4SM -SN BR OVC010 M07/M08 A2972 RMK
       AO2 SLP065 P0002 60005 T10671083 11017 21067 53004

METAR KCCU 230654Z AUTO 2SM -SN OVC010 M10/M13 A2965 RMK AO2
METAR KCCU 230636Z AUTO 1 3/4SM -SN OVC010 M10/M13 A2966 RMK AO2
METAR KCCU 230612Z AUTO 27003KT 3/4SM SN OVC012 M10/M13 A2966 RMK
       AO2

METAR KLXV 230653Z AUTO 02005KT 3SM -SN BR OVC042 M10/M12 A2963 RMK AO2
       SNB0558 SLP023 P0000 T11001117 410611106
METAR KLXV 230553Z AUTO 00000KT 9SM OVC055 M10/M11 A2967 RMK AO2
       SNB03E30 SLP040 P0000 60003 T11001111 11078 21106 53000
METAR KLXV 230453Z AUTO 04003KT 10SM BKN048 OVC075 M10/M11 A2965 RMK AO2
       SLP041 T11001111

Sunrise/Sunset for 02/23/2019
Rangely           - 06:57:11 MST / 17:59:44 MST
Grand Junction    - 06:55:11 MST / 17:59:56 MST
Steamboat Springs - 06:49:47 MST / 17:51:28 MST

Grand Junction (KGJX) 02/23/19 06:48 UTC
Radar VAD winds      Height      Dir/Spd(kt)
                  26000 FT MSL...172/078
                  25000 FT MSL...179/063
                  24000 FT MSL...179/053
                  22000 FT MSL...173/037
                  20000 FT MSL...171/012
                  19000 FT MSL...161/008
                  18000 FT MSL...129/011
                  18000 FT MSL...130/011
                  17000 FT MSL...115/007
                  15000 FT MSL...338/006
                  14600 FT MSL...341/008
                  14000 FT MSL...334/010
                  13000 FT MSL...354/018
                  12900 FT MSL...341/013
                  12000 FT MSL...358/019
                  11100 FT MSL...006/018
                  11000 FT MSL...007/022
                  11000 FT MSL...007/021
                  10400 FT MSL...008/023

Grand Junction Aviation Discussion
Issued at 0648 UTC Saturday, February 23, 2019

.AVIATION...(For the 06Z TAFS through 06Z Saturday night)
Issued at 1112 PM MST Fri Feb 22 2019
Periodic IFR/MVFR conditions can be expected through 10Z as
scattered snow showers persist across western Colorado.
Significantly drier air has already pushed into eastern Utah in
the wake of the trough this evening and this drier air will
continue to progress east overnight. As a result, snow showers
will taper off across all but the Continental Divide through
approximately 12Z Saturday morning. VFR conditions and clearing
skies will make an appearance from west to east by 15Z Saturday
with VFR across all TAF sites. An exception will be over the
Elkhead Mountains where some light, isolated snow showers may
redevelop after 20Z.


* * * * * Southwest Colorado * * * * *

METAR KAJZ 230655Z AUTO 00000KT 7SM SCT004 BKN010 OVC018 M01/M02 A2979
       RMK AO2 T10151022
METAR KAJZ 230635Z AUTO 00000KT 2 1/2SM -SN OVC006 M01/M02 A2978 RMK AO2
       T10111020
METAR KAJZ 230615Z AUTO 00000KT 3SM -SN BKN006 BKN009 OVC014 M01/M02
       A2979 RMK AO2 T10101018

KMTJ 230535Z 2306/2406 31006KT 4SM -SN BR OVC015
     FM230900 32005KT P6SM VCSH BKN020 OVC040
     FM231100 VRB05KT P6SM SCT025 BKN050
     FM231300 VRB05KT P6SM SCT045 BKN070
     FM231500 VRB05KT P6SM SCT080 BKN100
METAR KMTJ 230653Z AUTO 29010KT 1/2SM SN FZFG BKN006 OVC014 M04/M06
       A2982 RMK AO2 SLP111 P0004 T10441061 410111044
SPECI KMTJ 230639Z AUTO 28007KT 3/4SM -SN BR FEW007 OVC013 M04/M06 A2982
       RMK AO2 P0003 T10441061
SPECI KMTJ 230619Z AUTO 31010KT 1SM -SN BR FEW008 OVC014 M04/M06 A2980
       RMK AO2 P0002 T10391061

METAR KGUC 230656Z AUTO 24008KT 9SM -SN FEW006 OVC009 M06/M07 A2968 RMK
       AO2 SNB45 CIG 008V014 SLP076 P0000 T10611072 FZRANO
SPECI KGUC 230647Z AUTO 23005KT 10SM -SN SCT006 BKN012 OVC060 M07/M08
       A2968 RMK AO2 SNB45 P0000 FZRANO
SPECI KGUC 230623Z AUTO 17004KT 10SM FEW006 SCT014 OVC070 M07/M08 A2969
       RMK AO2 FZRANO

METAR K7BM 230648Z AUTO 00000KT 10SM SCT049 SCT060 OVC100 M06/M09 A2965
       RMK AO2
METAR K7BM 230624Z AUTO 00000KT 10SM SCT049 BKN055 OVC070 M06/M09 A2964
       RMK AO2
METAR K7BM 230630Z AUTO 00000KT 10SM SCT049 BKN065 OVC090 M06/M09 A2965
       RMK AO2

METAR KAEJ 230655Z AUTO 00000KT 10SM BKN060 BKN080 OVC095 M05/M08 A2967
       RMK AO2 T10521084
METAR KAEJ 230635Z AUTO 31003KT 10SM SCT060 OVC080 M04/M08 A2966 RMK AO2
       T10441082
METAR KAEJ 230615Z AUTO 04004KT 10SM BKN080 OVC090 M04/M07 A2966 RMK AO2
       T10451067

METAR KANK 230655Z AUTO 25004KT 10SM SCT039 SCT050 OVC090 M03/M05 A2975
       RMK AO1 T10351050
METAR KANK 230635Z AUTO 24004KT 10SM SCT037 BKN060 OVC070 M03/M05 A2975
       RMK AO1 T10351051
METAR KANK 230615Z AUTO 31004KT 10SM OVC070 M03/M05 A2975 RMK AO1
       T10291047

METAR KMYP 230655Z AUTO M11/M13 A2972 RMK AO2 LTG DSNT SE PWINO
METAR KMYP 230630Z AUTO M11/M13 A2973 RMK AO2 PWINO
METAR KMYP 230612Z AUTO M11/M13 A2971 RMK AO2 PWINO

METAR KAIB 230655Z AUTO 32008KT 10SM OVC090 M03/M06 A2984 RMK AO2
METAR KAIB 230635Z AUTO 30010KT 10SM SCT048 SCT065 OVC090 M03/M06 A2983
       RMK AO2
METAR KAIB 230615Z AUTO 31010KT 10SM SCT034 BKN049 OVC065 M03/M06 A2981
       RMK AO2

KTEX 230535Z 2306/2406 27011KT 1 1/2SM -SN OVC008
     FM231000 30008KT P6SM VCSH BKN015 OVC035
     FM231300 30006KT P6SM FEW050 SCT070
     FM231500 26006KT P6SM FEW080 SCT140
METAR KTEX 230655Z AUTO 27008KT 4SM -SN SCT015 BKN027 OVC032 M08/M09
       A2972 RMK AO2
METAR KTEX 230635Z AUTO 28009G15KT 1 3/4SM -SN BKN015 OVC020 M08/M09
       A2971 RMK AO2
METAR KTEX 230615Z AUTO 27012G19KT 2SM -SN SCT010 BKN018 OVC025 M08/M09
       A2970 RMK AO2

METAR K04V 230654Z AUTO 00000KT 10SM SCT047 OVC060 M03/M07 A2964 RMK
       AO2
METAR K04V 230636Z AUTO 00000KT 10SM BKN060 BKN075 OVC090 M03/M07 A2965
       RMK AO2
METAR K04V 230618Z AUTO 00000KT 10SM SCT060 BKN100 OVC120 M03/M07 A2966
       RMK AO2

METAR KCEZ 230653Z AUTO 31012G17KT 10SM OVC043 M03/M07 A2980 RMK AO2
       SNE36 SLP091 P0000 T10331072 400221039
SPECI KCEZ 230645Z AUTO 30007KT 10SM OVC037 M03/M07 A2979 RMK AO2 SNE36
       P0000 T10331067
SPECI KCEZ 230621Z AUTO 30008KT 3SM -SN OVC017 M03/M07 A2978 RMK AO2
       P0000 T10331067

KDRO 230535Z 2306/2406 VRB05KT P6SM VCSH BKN010 OVC020
     FM230700 26007KT P6SM VCSH BKN025 OVC030
     FM230900 27011KT P6SM VCSH SCT035 BKN045
     FM231100 26011KT P6SM SCT070
     FM240000 VRB04KT P6SM SKC
METAR KDRO 230653Z AUTO 24007KT 1 3/4SM -SN BR BKN010 BKN021 OVC027
       M04/M04 A2970 RMK AO2 SLP084 P0001 T10391044 400001044
SPECI KDRO 230648Z AUTO 24008KT 2SM -SN BR BKN010 BKN014 OVC025 M04/M04
       A2970 RMK AO2 P0001
SPECI KDRO 230634Z AUTO 25007KT 3SM -SN BR SCT010 BKN013 OVC043 M04/M04
       A2970 RMK AO2 P0000 T10391044

METAR KPSO 230655Z AUTO 00000KT 7SM -SN BKN029 OVC036 M04/M04 A2970 RMK
       AO2 T10451045
METAR KPSO 230635Z AUTO 00000KT 10SM -SN OVC029 M05/M05 A2970 RMK AO2
       T10471047
METAR KPSO 230615Z AUTO 24004KT 10SM BKN003 OVC031 M04/M04 A2970 RMK AO2
       T10451045

METAR KCPW 230648Z AUTO OVC011 M13/M13 A2966 RMK AO2 LTG DSNT E P0002
       PWINO
METAR KCPW 230630Z AUTO OVC011 M13/M13 A2967 RMK AO2 PWINO
METAR KCPW 230606Z AUTO M13/M13 A2967 RMK AO2 PWINO

KALS 230601Z 2306/2406 34010KT P6SM BKN050 OVC100
      TEMPO 2306/2308 3SM -SN BR OVC025
     FM230800 35012KT P6SM VCSH SCT015 BKN030
     FM231400 33015G25KT P6SM SCT030 BKN090
     FM231600 33015G25KT P6SM SKC
     FM240200 29008KT P6SM SKC
METAR KALS 230652Z AUTO 00000KT 10SM BKN060 OVC070 M03/M04 A2964 RMK AO2
       SLP034 T10331044 400281089
METAR KALS 230552Z AUTO 08006KT 10SM BKN049 OVC095 M03/M04 A2968 RMK AO2
       SNE35 SLP049 P0001 60001 T10331039 10011 21033 51009
SPECI KALS 230539Z AUTO 07006KT 8SM SCT027 BKN048 OVC090 M03/M04 A2968
       RMK AO2 SNE35 P0001 T10331039

Sunrise/Sunset for 02/23/2019
Vail    - 06:47:00 MST / 17:50:33 MST
Durango - 06:50:32 MST / 17:59:06 MST
Alamosa - 06:42:44 MST / 17:50:56 MST

Grand Junction (KGJX) 02/23/19 06:48 UTC
Radar VAD winds      Height      Dir/Spd(kt)
                  26000 FT MSL...172/078
                  25000 FT MSL...179/063
                  24000 FT MSL...179/053
                  22000 FT MSL...173/037
                  20000 FT MSL...171/012
                  19000 FT MSL...161/008
                  18000 FT MSL...129/011
                  18000 FT MSL...130/011
                  17000 FT MSL...115/007
                  15000 FT MSL...338/006
                  14600 FT MSL...341/008
                  14000 FT MSL...334/010
                  13000 FT MSL...354/018
                  12900 FT MSL...341/013
                  12000 FT MSL...358/019
                  11100 FT MSL...006/018
                  11000 FT MSL...007/022
                  11000 FT MSL...007/021
                  10400 FT MSL...008/023

Grand Junction Aviation Discussion
Issued at 0648 UTC Saturday, February 23, 2019

.AVIATION...(For the 06Z TAFS through 06Z Saturday night)
Issued at 1112 PM MST Fri Feb 22 2019
Periodic IFR/MVFR conditions can be expected through 10Z as
scattered snow showers persist across western Colorado.
Significantly drier air has already pushed into eastern Utah in
the wake of the trough this evening and this drier air will
continue to progress east overnight. As a result, snow showers
will taper off across all but the Continental Divide through
approximately 12Z Saturday morning. VFR conditions and clearing
skies will make an appearance from west to east by 15Z Saturday
with VFR across all TAF sites. An exception will be over the
Elkhead Mountains where some light, isolated snow showers may
redevelop after 20Z.


* * * * * Arizona * * * * *

KPGA 230531Z 2306/2406 29008KT P6SM SKC
     FM231100 VRB03KT P6SM SCT250
METAR KPGA 230653Z AUTO 29009G14KT 10SM CLR M01/M11 A2998 RMK AO2 SLP161
       T10111106 400221017 TSNO
METAR KPGA 230553Z AUTO 28009KT 10SM CLR M01/M10 A2996 RMK AO2 SLP154
       T10061100 10017 21006 53022 TSNO

METAR KRQE 230653Z AUTO 25003KT 10SM BKN018 BKN030 M08/M10 A2983 RMK AO2
       SLP104 T10781100 410061083
SPECI KRQE 230613Z AUTO 29004KT 10SM FEW020 M06/M08 A2981 RMK AO2
       T10611083
METAR KRQE 230553Z AUTO 22004KT 10SM SCT020 BKN027 M08/M09 A2980 RMK AO2
       SNB09E36 SLP094 P0001 60001 T10781089 11022 21078 51012

Flagstaff (KFSX) 02/23/19 07:00 UTC
Radar VAD winds      Height      Dir/Spd(kt)
                   9000 FT MSL...288/022
                   8100 FT MSL...232/012

Flagstaff Aviation Discussion
Issued at 0434 UTC Saturday, February 23, 2019

.AVIATION...For the 06Z Package...A few areas of poor aviation
conditions with MVFR/IFR/LIFR conditions continue until 12Z in
Navajo and Apache Counties as the storm system moves east. Patchy
fog may develop before 15Z. Otherwise, expect VFR conditions with
light winds through the next 24 hours. Aviation discussion not
updated for TAF amendments.


* * * * * Utah * * * * *

KSLC 230537Z 2306/2412 15005KT P6SM FEW180
     FM231900 17010G18KT P6SM SCT080 BKN100
     FM240200 16009KT P6SM BKN080
METAR KSLC 230654Z 17005KT 10SM CLR M06/M11 A3008 RMK AO2 SLP211
       T10561106 400001067
METAR KSLC 230554Z 15004KT 10SM CLR M04/M10 A3008 RMK AO2 SLP209
       T10441100 11006 21050 51010
METAR KSLC 230454Z 00000KT 10SM FEW180 M04/M09 A3008 RMK AO2 SLP206
       T10441089

KVEL 230535Z 2306/2406 VRB03KT P6SM FEW035 FEW090
     FM231900 VRB03KT P6SM FEW200
     FM232100 VRB03KT P6SM SCT045 BKN110
METAR KVEL 230653Z AUTO 00000KT 10SM OVC040 M13/M16 A2995 RMK AO2 SLP192
       T11331161 410061144
METAR KVEL 230553Z AUTO 35004KT 10SM SCT032 M12/M15 A2994 RMK AO2 SLP188
       T11171150 11033 21144 51013
METAR KVEL 230453Z AUTO 00000KT 10SM FEW037 M13/M16 A2994 RMK AO2 SLP195
       T11281161

METAR KPUC 230653Z AUTO 31014G21KT 10SM CLR M07/M14 A2990 RMK AO2 SLP175
       T10671139 400001089
METAR KPUC 230553Z AUTO 31017G25KT 10SM CLR M06/M14 A2989 RMK AO2 PK WND
       32026/0455 SLP171 T10611139 11022 21067 51014

KCNY 230535Z 2306/2406 VRB05KT P6SM FEW150
      TEMPO 2306/2309 4SM BR
     FM230900 29005KT P6SM FEW200
     FM231300 VRB04KT P6SM SKC
METAR KCNY 230653Z AUTO 32005KT 10SM CLR M09/M09 A2990 RMK AO2 SLP163
       I1001 T10891089 410061106
METAR KCNY 230553Z AUTO 30007KT 10SM CLR M08/M09 A2988 RMK AO2 SLP154
       60000 I6000 T10781089 11011 21100 51008
METAR KCNY 230453Z AUTO 25004KT 4SM BR CLR M06/M07 A2988 RMK AO2 SLP152
        I1000 T10611067


Salt Lake City (KMTX) 02/23/19 06:55 UTC
Radar VAD winds      Height      Dir/Spd(kt)
                  22000 FT MSL...357/003
                  20000 FT MSL...314/004
                  18000 FT MSL...293/007
                  17800 FT MSL...289/009
                  17000 FT MSL...284/008
                  16000 FT MSL...016/003
                  15000 FT MSL...346/003
                  14000 FT MSL...268/031
                   9900 FT MSL...314/003
                   9100 FT MSL...018/002
                   9000 FT MSL...349/002
                   8300 FT MSL...314/002
                   8000 FT MSL...003/002
                   7600 FT MSL...025/002
                   7100 FT MSL...174/001
                   7000 FT MSL...318/002
                   6900 FT MSL...315/003

Salt Lake City Aviation Discussion
Issued at 0442 UTC Saturday, February 23, 2019

.AVIATION...Stable high pressure and a drier air mass will move
across northern Utah tonight through Saturday. VFR conditions will
prevail with generally light winds through the current TAF period.


* * * * * Wyoming * * * * *

KEVW 230537Z 2306/2406 24008KT P6SM SKC
     FM231700 22016G26KT P6SM BKN070
     FM240200 22016KT P6SM BKN060=
METAR KEVW 230653Z AUTO 23008KT 10SM CLR M17/M21 A2993 RMK AO2 SLP227
       T11721206 410941172
METAR KEVW 230553Z AUTO 20004KT 10SM CLR M16/M20 A2993 RMK AO2 SLP223
       T11561200 11100 21167 51012
METAR KEVW 230453Z AUTO 23008KT 10SM CLR M16/M20 A2992 RMK AO2 SLP221
       T11561200

KRKS 230524Z 2306/2406 26015KT P6SM FEW100 SCT200
     FM231700 25018G26KT P6SM SCT100 SCT200
     FM240100 25013KT P6SM SCT100 BKN150
METAR KRKS 230654Z AUTO 25010KT 10SM CLR M16/M21 A2989 RMK AO2 SLP215
       T11611206 411001161
METAR KRKS 230554Z AUTO 25008KT 10SM CLR M15/M19 A2988 RMK AO2 SLP211
       T11501194 11100 21150 51009
METAR KRKS 230454Z AUTO 24013KT 10SM CLR M13/M18 A2988 RMK AO2 SLP207
       T11331178

KRWL 230525Z 2306/2406 28008KT P6SM SCT200
     FM231500 25020G30KT P6SM SCT070 SCT250
     FM231800 25022G35KT P6SM BKN070
METAR KRWL 230653Z AUTO 22008KT 200V260 10SM CLR M13/M16 A2984 RMK AO2
       SLP170 T11281161 410721150
METAR KRWL 230553Z AUTO 26008KT 10SM CLR M12/M16 A2984 RMK AO2 SLP168
       T11221156 11094 21150 50005
METAR KRWL 230453Z AUTO 25009G14KT 10SM CLR M12/M16 A2984 RMK AO2 SLP171
       T11221156

KLAR 230525Z 2306/2406 36008KT P6SM BKN015
     FM230900 26010KT P6SM SCT100
     FM231700 27025G35KT P6SM SCT150
METAR KLAR 230653Z AUTO 04005KT 10SM OVC012 M11/M13 A2977 RMK AO2 SLP112
       T11111133 400061117
METAR KLAR 230553Z AUTO 03008KT 10SM OVC012 M11/M13 A2975 RMK AO2 SLP114
       60000 T11111133 11061 21111 50000
SPECI KLAR 230506Z AUTO 03007KT 10SM OVC014 M11/M13 A2978 RMK AO2
       T11061133

KCYS 230525Z 2306/2406 32008KT 6SM BR VCSH SCT010 OVC040
     FM231200 30015KT P6SM SCT060 BKN120
     FM231600 30026G38KT P6SM SCT100
METAR KCYS 230653Z AUTO 31003KT 10SM BKN070 BKN095 BKN120 M07/M10 A2977
        RMK AO2 SLP141 T10721100 410611100
METAR KCYS 230553Z AUTO 34006KT 10SM OVC075 M07/M11 A2974 RMK AO2 SLP126
       T10671106 11061 21067 58008
METAR KCYS 230453Z 10SM OVC065 M07/M09 A2977 RMK AO2 SLP142
       T10671089

Riverton (KRIW) 02/23/19 06:56 UTC
Radar VAD winds      Height      Dir/Spd(kt)
                  26000 FT MSL...197/001
                  24000 FT MSL...166/001
                  22000 FT MSL...152/002
                  16000 FT MSL...180/001
                  14000 FT MSL...175/001
                   8100 FT MSL...180/001
                   8000 FT MSL...257/000
                   7000 FT MSL...312/017
                   6200 FT MSL...269/009
                   6000 FT MSL...261/008
                   6000 FT MSL...223/005

Cheyenne (KCYS) 02/23/19 06:52 UTC
Radar VAD winds      Height      Dir/Spd(kt)
                  24000 FT MSL...196/051
                  23000 FT MSL...205/047
                  22000 FT MSL...208/045
                  21000 FT MSL...205/043
                  20000 FT MSL...204/038
                  19000 FT MSL...204/032
                  18000 FT MSL...209/027
                  17000 FT MSL...234/021
                  16000 FT MSL...253/022
                  15000 FT MSL...270/020
                  14100 FT MSL...277/015
                  14000 FT MSL...277/014
                  13000 FT MSL...296/009
                  12400 FT MSL...326/010
                  12000 FT MSL...333/012
                  11000 FT MSL...332/012
                  10700 FT MSL...339/010
                   9000 FT MSL...325/002
                   8900 FT MSL...332/002
                   8000 FT MSL...353/004

Riverton Aviation Discussion
Issued at 0530 UTC Saturday, February 23, 2019

.AVIATION...06Z Issuance
West of the Divide...KBPI/KJAC/KPNA/KRKS Routes
Clouds will gradually increase and lower across the far west during
the day Saturday as fetch of moisture riding a 110kt jet reaches the
region. Expect MVFR and eventually IFR conditions to develop at KJAC
between 18Z-22Z/Saturday as the moisture deepens. Other terminals
will remain VFR through the forecast period with VCSH developing
around KPNA and KBPI late Saturday afternoon and evening. Mountain
top obscurations will become widespread by late Saturday afternoon.
Westerly surface wind will increase at KRKS and gust 25-30kts
Saturday afternoon before decreasing around sunset. Southerly wind
should increase after sunset at KJAC as winter storm gets underway.
East of the Divide...KCOD/KCPR/KLND/KRIW/KWRL Routes
VFR conditions to prevail at all terminals through 06Z/Sun with the
exception of KCOD. Spillover moisture enhanced by jet dynamics and a
weak cold front could lead to a brief period of MVFR conditions in
light snow at KCOD near the end of the forecast period. Mountain top
obscurations will become widespread along the Continental Divide and
far northern Wyoming by early Saturday evening. Diurnally driven
southwest surface wind will gust around 25kts for most of the
daylight hours at KCPR.
Please see the Aviation Weather Center and/or CWSU ZDV and ZLC for
the latest information on icing and turbulence forecasts.

Cheyenne Aviation Discussion
Issued at 0545 UTC Saturday, February 23, 2019

.AVIATION...(For the 06Z TAFS through Saturday evening)
Issued at 440 PM MST Fri Feb 22 2019
A band of moderate snow will mainly impact KSNY tonight, with
occasional light snow possible at KAIA and KBFF. LIFR conditions
will persist at KSNY through 09z before conditions begin to improve
towards sunrise. After 15z, VFR conditions are expected across all
terminals with windy conditions quickly developing. Gusts up to 40
knots are possible from KRWL to KCYS.


* * * * * Nebraska * * * * *

METAR KIBM 230655Z AUTO 00000KT 5SM BR OVC005 M05/M06 A2982 RMK AO2
       T10551060 410401090
METAR KIBM 230635Z AUTO 00000KT 5SM BR BKN005 OVC075 M06/M06 A2983 RMK
       AO2 T10571063
METAR KIBM 230615Z AUTO 00000KT 5SM BR SCT002 OVC075 M06/M06 A2983 RMK
       AO2 T10561061

KSNY 230525Z 2306/2406 02008KT 1SM -SN BR OVC008
      TEMPO 2306/2308 1/2SM SN FZFG OVC005
     FM230900 34015KT 2SM -SN BR SCT020 BKN030
     FM231500 33020G30KT 3SM BLSN SCT080
     FM232300 33015KT P6SM SCT080
SPECI KSNY 230702Z AUTO 35005KT 1SM -SN BR OVC022 M06/M06 A2983 RMK AO2
       P0000 T10561061
METAR KSNY 230653Z AUTO 36004KT 2SM -SN BR OVC028 M06/M06 A2984 RMK AO2
       SLP147 P0000 T10561061 410391089
SPECI KSNY 230619Z AUTO 33004KT 1 1/4SM -SN BR OVC016 M06/M06 A2986 RMK
       AO2 P0000 T10561061

METAR KOGA 230655Z AUTO 36003KT 3SM BR SCT008 OVC016 M02/M02 A2987 RMK
       AO2 P0001 T10231025
METAR KOGA 230635Z AUTO 01004KT 2SM -SN BKN004 OVC012 M02/M02 A2986 RMK
       AO2 P0001 T10231025
METAR KOGA 230615Z AUTO 36004KT 3SM -SN OVC004 M02/M02 A2987 RMK AO2
       T10231025

SPECI KIML 230702Z AUTO 14005KT 1 1/2SM BR OVC002 M02/M04 A2983 RMK AO2
       T10221039
METAR KIML 230653Z AUTO 09003KT 2SM BR OVC002 M02/M03 A2984 RMK AO2
       SLP131 T10171033 400001061
SPECI KIML 230634Z AUTO 12005KT 1 3/4SM BR OVC002 M02/M03 A2984 RMK AO2
       T10171033

KMCK 230520Z 2306/2406 09007KT 1 1/2SM BR OVC003
      TEMPO 2306/2308 1/4SM -FZDZ FG OVC002
     FM230800 03012KT 1/4SM SHSN FZFG OVC002
     FM231400 01012G22KT 1/4SM SHSN FZFG BLSN OVC002
     FM231800 34030G40KT 1/2SM SHSN FZFG BLSN OVC003
     FM232300 33025G35KT 3SM -SHSN BKN015 BKN050
METAR KMCK 230653Z AUTO 08006KT 2 1/2SM BR OVC002 M01/M01 A2985 RMK AO2
       SLP130 T10111011
SPECI KMCK 230643Z AUTO 09006KT 3SM BR OVC002 M01/M01 A2985 RMK AO2
       T10111011
SPECI KMCK 230627Z AUTO 09006KT 2 1/2SM BR OVC002 M01/M01 A2986 RMK AO2
       CIG 001V006 T10061011

North Platte (KLNX) 02/23/19 06:56 UTC
Radar VAD winds      Height      Dir/Spd(kt)
                  26000 FT MSL...226/038
                  25000 FT MSL...229/044
                  17000 FT MSL...204/034
                  13000 FT MSL...200/024

North Platte Aviation Discussion
Issued at 0541 UTC Saturday, February 23, 2019

.AVIATION...(For the 06Z TAFS through 06Z Saturday night)
Issued at 1140 PM CST Fri Feb 22 2019
For the KLBF terminal: Expect visibilities of 2 miles and ceilings
below 500 FT AGL overnight with fog and light snow developing
after 10z. Light snow will persist through late morning with
visibilities down to 1SM. Ceilings will increase to 4000 FT AGL by
afternoon with clearing skies by Saturday evening. Winds will
increase Saturday afternoon and may gust up to 35 KTS in the
afternoon. For the KVTN terminal: Visibilities will range from 800
to 2500 FT AGL through mid morning Saturday. Ceilings will then
increase to 3500 FT AGL during the afternoon hours with broken
ceilings around 15000 FT AGL after 21z.


* * * * * Kansas * * * * *

KGLD 230633Z 2307/2406 10009KT 3SM BR OVC002
     FM230930 06009KT 1/4SM SHSN FG OVC003
     FM231300 01016G24KT 1/4SM +SHSN FZFG BLSN OVC003
     FM231700 35032G42KT 1/4SM +SHSN FZFG BLSN OVC003
     FM232300 34028G38KT 3SM -SHSN BLSN BKN025 BKN060
METAR KGLD 230653Z AUTO 08012KT 1 1/2SM BR OVC002 M01/M01 A2978 RMK AO2
       SLP100 T10111011 400171033 FZRANO $
SPECI KGLD 230643Z AUTO 08012KT 1 3/4SM BR OVC002 M01/M01 A2978 RMK AO2
       T10111011 FZRANO $
METAR KGLD 230553Z AUTO 08011KT 2 1/2SM BR OVC002 M01/M01 A2979 RMK AO2
       UPB0454E02 SLP105 P0001 60001 T10061011 10011 21006 58006
       FZRANO $

KGCK 230701Z 2307/2406 14010KT 1/4SM FG OVC002
     FM230800 12010KT 1/2SM -RA OVC003
     FM231000 10010KT 1/2SM -RASN OVC003
     FM231200 07015KT 1/2SM SN OVC003
     FM231500 36025G35KT 1/4SM SN BLSN OVC003
     FM231800 34030G40KT 1/4SM SN BLSN OVC002
     FM232100 33035G45KT 1/2SM BLSN BKN015
     FM240000 33025G35KT P6SM SCT050
     FM240300 31015KT P6SM SKC
METAR KGCK 230654Z AUTO 08006KT 1/4SM FG VV002 01/01 A2976 RMK AO2
       SLP090 T00110011
SPECI KGCK 230644Z AUTO 07005KT 1/2SM FG VV002 01/01 A2976 RMK AO2
       T00110011
SPECI KGCK 230627Z AUTO 06006KT 1/4SM FG VV002 01/01 A2976 RMK AO2
       T00110011

METAR KLBL 230656Z AUTO 17012KT 10SM OVC008 04/03 A2974 RMK AO2 SLP077
       T00440028
METAR KLBL 230556Z AUTO 16015KT 10SM OVC008 04/02 A2976 RMK AO2 SLP086
       T00440022 10056 20039 400670000 56021
METAR KLBL 230456Z AUTO 15015KT 10SM OVC008 04/03 A2978 RMK AO2 SLP094
       T00440028

METAR KEHA 230655Z AUTO 18017G22KT 7SM OVC002 04/04 A2971 RMK AO2 LTG
       DSNT S T00370037
METAR KEHA 230635Z AUTO 15016G20KT 10SM OVC004 04/04 A2969 RMK AO2 LTG
       DSNT S T00360035
METAR KEHA 230615Z AUTO 16020G26KT 10SM OVC004 04/04 A2971 RMK AO2 LTG
       DSNT SW T00380036

Goodland (KGLD) 02/23/19 06:53 UTC
Radar VAD winds      Height      Dir/Spd(kt)
                  30000 FT MSL...216/057
                  28000 FT MSL...216/059
                  26000 FT MSL...216/057
                  25000 FT MSL...217/056
                  24000 FT MSL...217/054
                  22000 FT MSL...217/050
                  20000 FT MSL...209/044
                  19000 FT MSL...205/046
                  18000 FT MSL...193/036
                  17000 FT MSL...194/035
                  16000 FT MSL...222/023
                  15000 FT MSL...217/025
                  14000 FT MSL...209/028
                  13000 FT MSL...207/029
                  12000 FT MSL...205/031
                  11600 FT MSL...179/022
                  11000 FT MSL...188/044
                  10000 FT MSL...188/043
                   8200 FT MSL...183/015
                   8000 FT MSL...203/018
                   7000 FT MSL...179/011
                   6500 FT MSL...174/008
                   6000 FT MSL...171/006
                   5000 FT MSL...121/008
                   4700 FT MSL...107/010
                   4600 FT MSL...099/010
                   4000 FT MSL...078/013
                   4000 FT MSL...078/013

Dodge City (KDDC) 02/23/19 06:55 UTC
Radar VAD winds      Height      Dir/Spd(kt)
                  12000 FT MSL...166/003
                   9600 FT MSL...043/005
                   9000 FT MSL...071/003
                   7000 FT MSL...171/006
                   6900 FT MSL...171/006
                   6000 FT MSL...181/009
                   5100 FT MSL...180/005
                   5000 FT MSL...176/022
                   4200 FT MSL...171/005
                   4000 FT MSL...124/005
                   3800 FT MSL...137/003
                   3200 FT MSL...114/007

Goodland Aviation Discussion
Issued at 0541 UTC Saturday, February 23, 2019

.AVIATION...(For the 06Z TAFS through 06Z Sunday night)
Issued at 1041 PM MST Fri Feb 22 2019
A winter storm will keep mainly IFR conditions or lower thru much
of the forecast period. Both terminals will see ceilings mainly
OVC002-003 thru about 23z Saturday before going a MVFR/VFR mix.
Freezing drizzle and fog will transition to snow/blowing snow by
13z Saturday. Visibility will range from 1/4sm to almost 2sm. By
23z...3sm -sn snow/blowing snow.
Winds...for KGLD...ENE around 10kts thru 13z Saturday...then N
15-25kts increasing to 25-45kts by 17z. For KMCK...ENE around
10-15kts thru 14z...then NNW 15-25kts with gusts 30-40kts from
18z onward.

Dodge City Aviation Discussion
Issued at 0700 UTC Saturday, February 23, 2019

.AVIATION...(For the 06Z TAFS through 06Z Saturday night)
Issued at 1057 PM CST Fri Feb 22 2019
VLIFR conditions throughout the entire CWA under dense fog and low
stratus down to a quarter mile and ceilings around 300-800 feet.
Visibility will improve slightly as rain develops at the beginning
of the period before transitioning to rain and snow mix after 09Z
and straight snow after 12Z as a warm front lifts ahead of a cold
front that will push through by 15Z. Winds will pick up behind it
up to 35kts initially before steadily increasing to 45kts by 21Z
with heavy and blowing snow expected during this time.
Visibilities will be down to a quarter mile and ceilings down to
200-300 feet. Winds will start to diminish after 00Z but still
will flowing snow still on the ground. Ceilings will scatter out
after this point as high pressure builds in from the Rockies
clearing out after 03Z towards the end of the period and northwest
winds diminishing to around 15kts holding steady into the next
period. Amendments will be needed with the ongoing weather and
varying visibility and ceilings as models hint at different
categories occurring throughout the storm system pushing through.


* * * * * Texas/Oklahoma * * * * *

KGUY 230520Z 2306/2406 14018KT P6SM BKN010
      TEMPO 2307/2310 2SM -RA BR OVC009
     FM231100 14015G24KT 1 1/2SM -RASN BLSN OVC008
     FM231500 28022G32KT 2SM -RASN BLSN OVC008
     FM231800 33038G56KT P6SM BKN015=
METAR KGUY 230653Z AUTO 17013G19KT 10SM OVC006 04/02 A2971 RMK AO2
       SLP057 T00440022
METAR KGUY 230553Z AUTO 16013G22KT 10SM OVC007 04/02 A2974 RMK AO2
       SLP069 T00440017 10078 20044 400830000 56014
METAR KGUY 230453Z AUTO 15011G22KT 10SM OVC008 04/02 A2974 RMK AO2
       SLP071 T00440017

KDHT 230520Z 2306/2406 14018KT 4SM BR VCSH BKN004
      TEMPO 2306/2309 2SM SHRA OVC009
     FM231000 19014G23KT 1 1/2SM BR OVC025
     FM231500 30031G43KT P6SM SCT010 BKN020 PROB30 2315/2318 4SM
      -RASN BKN010 OVC015
METAR KDHT 230653Z AUTO 13012KT 5SM -RA BR BKN005 OVC037 03/02 A2966
        RMK AO2 UPE0555RAB0555 SLP038 P0003 T00280017
SPECI KDHT 230633Z AUTO 16007KT 4SM -RA BR BKN004 OVC029 03/02 A2967 RMK
       AO2 LTG DSNT NE UPE0555RAB0555 PRESFR P0003 T00280022
SPECI KDHT 230606Z AUTO 17014KT 4SM -RA BR OVC002 03/02 A2971 RMK AO2
       LTG DSNT NW UPE0555RAB0555 P0001 T00280022

Amarillo (KAMA) 02/23/19 06:56 UTC
Radar VAD winds      Height      Dir/Spd(kt)
                  30000 FT MSL...210/063
                  28000 FT MSL...208/056
                  27700 FT MSL...207/055
                  26000 FT MSL...202/052
                  25000 FT MSL...202/052
                  24300 FT MSL...201/053
                  24000 FT MSL...200/053
                  22000 FT MSL...196/055
                  20900 FT MSL...195/058
                  20000 FT MSL...195/058
                  19000 FT MSL...193/058
                  18000 FT MSL...192/059
                  17500 FT MSL...192/060
                  17000 FT MSL...192/060
                  16000 FT MSL...191/059
                  15000 FT MSL...186/058
                  14900 FT MSL...186/058
                  14000 FT MSL...192/055
                  13000 FT MSL...189/054
                  12600 FT MSL...186/055
                  12000 FT MSL...187/054
                  11000 FT MSL...187/051
                  10700 FT MSL...186/050
                  10000 FT MSL...187/049
                   9200 FT MSL...182/046
                   9000 FT MSL...182/045
                   8000 FT MSL...179/041
                   8000 FT MSL...179/041
                   7000 FT MSL...180/041
                   7000 FT MSL...180/041
                   6200 FT MSL...178/037
                   6000 FT MSL...179/034
                   5400 FT MSL...177/030
                   5000 FT MSL...163/027
                   4700 FT MSL...161/021
                   4300 FT MSL...138/019

Amarillo Aviation Discussion
Issued at 0433 UTC Saturday, February 23, 2019

.AVIATION...
Lots of low level moisture available leaving the terminals and
much of the area in LIFR and IFR conditions for CIGs as well as
VIS. The first half of this period has a very messy forecast in
store with the threat of fog, rain, and snow. Winds will be out
of the southeast in the beginning backing to the west and picking
up in strength by Saturday morning as a low pressure system enters
the area. KGUY and KDHT looking at the possibility of snow here
in the next couple of hours while KAMA may see some flurries.
Between 15Z and 18Z Saturday precipitation chances will begin to
exit the Panhandles to the northwest leaving the terminals in MVFR
to VFR conditions, and winds gusting 40 to 50 kts. KGUY will be
the last terminal to see precipitation leave the area. Thunder
cannot be ruled out entirely between 06Z and 12Z especially for
KAMA but confidence is low.
Hoffeditz


* * * * * New Mexico * * * * *

KFMN 230543Z 2306/2406 32010KT 3SM BR VCSH OVC025
      TEMPO 2306/2308 1/2SM -SN FZFG OVC008
     FM230900 24014KT P6SM SCT035 BKN080
     FM231300 29016G25KT P6SM SKC
     FM240000 32011KT P6SM SKC
METAR KFMN 230653Z AUTO 27015KT 2SM -SN BR OVC005 M02/M03 A2976 RMK AO2
       SLP090 P0001 T10221033 400281022
SPECI KFMN 230645Z AUTO 27012KT 2 1/2SM -SN BR OVC005 M02/M03 A2976 RMK
       AO2 P0001 T10221028
SPECI KFMN 230625Z AUTO 27013KT 1 3/4SM -SN BR BKN005 OVC011 M02/M03
       A2975 RMK AO2 P0001 T10221028

METAR KSKX 230656Z AUTO 26005KT 2 1/2SM -SN BR SCT009 BKN025 OVC033
       M03/M04 A2966 RMK AO2 SLP049 P0007 T10331044 400441056 FZRANO
       $
SPECI KSKX 230648Z AUTO 28004KT 2 1/2SM -SN BR FEW009 BKN028 OVC033
       M03/M04 A2966 RMK AO2 P0006 FZRANO $
SPECI KSKX 230638Z AUTO 28003KT 3SM -SN BR FEW009 OVC030 M03/M04 A2967
       RMK AO2 P0004 FZRANO $

KLVS 230543Z 2306/2406 27013KT P6SM VCSH OVC040
     FM231000 28018G27KT P6SM BKN080
     FM231500 31020G30KT P6SM SKC
     FM232000 32015G21KT P6SM SKC
     FM240100 34008KT P6SM SKC
METAR KLVS 230653Z AUTO 07007KT 10SM BKN065 OVC080 M03/M03 A2958 RMK AO2
       PRESFR SLP994 T10281033 400831067
METAR KLVS 230553Z AUTO 33003KT 10SM OVC046 M01/M04 A2965 RMK AO2 PK WND
       26027/0454 UPB00E03SNE00 SLP013 P0000 60000 T10061044 10061
       21011 58006

METAR KRTN 230653Z AUTO 31012G22KT 3SM -SN BR OVC024 00/M02 A2958 RMK
       AO2 WSHFT 0621 SLP994 P0007 T00001022 400891044
SPECI KRTN 230650Z AUTO 31012G22KT 2SM -SN BR OVC019 00/M02 A2958 RMK
       AO2 WSHFT 0621 P0007
SPECI KRTN 230644Z AUTO 30012G25KT 1SM -SN BR VV011 00/M02 A2958 RMK AO2
       WSHFT 0621 P0007 T00001017

METAR KCAO 230655Z AUTO 14012KT 1/4SM FG VV002 01/01 A2963 RMK AO2
       RAB14E33UPB33E35 SLP030 P0001 T00110011 400941056
METAR KCAO 230555Z AUTO 16013KT 1/4SM FG VV002 02/01 A2968 RMK AO2 LTG
       DSNT SE SLP049 T00170011 10083 20011 58003
METAR KCAO 230455Z AUTO 18012KT 1/4SM FG VV002 02/02 A2970 RMK AO2
       SLP059 T00170017

Albuquerque (KABX) 02/23/19 06:55 UTC
Radar VAD winds      Height      Dir/Spd(kt)
                  19000 FT MSL...226/016
                  18000 FT MSL...239/016
                  17000 FT MSL...261/019
                  16000 FT MSL...278/021
                  15000 FT MSL...276/024
                  14000 FT MSL...257/018
                  13800 FT MSL...256/019
                  13000 FT MSL...266/021
                  12200 FT MSL...267/019
                  12000 FT MSL...278/030
                  11000 FT MSL...281/036
                  10400 FT MSL...262/021
                  10000 FT MSL...277/036
                   9000 FT MSL...273/024
                   8700 FT MSL...259/013
                   8000 FT MSL...276/035
                   7000 FT MSL...302/010
                   7000 FT MSL...278/010
                   6900 FT MSL...272/002

Albuquerque Aviation Discussion
Issued at 0555 UTC Saturday, February 23, 2019

.AVIATION...
06Z TAF CYCLE
Ceilings and visibility should gradually improve from west to east
as the upper low tracks across NM. Prior to that, patchy IFR fog as
well as snow showers will impact western/central NM between 06Z-10Z.
Winds will pick up by mid-morning and persist through the afternoon
with gusts ranging from 25-30kts. Meanwhile, across eastern NM, the
band of precipitation in advance of the upper low will push through
KTCC by 10Z. More persistent snow and IFR conditions will impact the
northeast plains through late morning. It appears this activity will
remain north of KLVS/KTCC, but will need to closely monitor for any
future updates. Winds will be cranking along/south of I-40 tonight
through tomorrow afternoon, with the strongest winds favored in the
15Z-19Z period. DPorter

* * * * * Winds and Temperatures Aloft Forecasts * * * * *

DATA BASED ON 230000Z
VALID 230600Z   FOR USE 0500-0900Z. TEMPS NEG ABV 24000
FT  3000    6000   9000    12000   18000   24000  30000  34000  39000
SLC      9900    3213-15 3218-19 3327-27 3334-39 323054 314156 283653
BCE                      3522-15 3537-26 3442-38 333951 324853 294949
LND              3009-11 2810-18 3017-29 3216-39 291454 282358 263353
RKS              3022    2918-18 2714-30 3420-39 321653 302056 263152
GJT              3615-10 3413-15 2009-28 2032-40 250851 281652 263049
FMN              2926-09 3014-14 1006-28 1748-39 202647 252547 263646
ABQ              2930-09 2717-15 2512-30 1753-38 223943 244243 245145
MBW              2919    2817-16 2247-25 2153-40 226355 233656 243752
DEN              0114-09 3408-13 2028-23 2145-38 208255 225454 224952
PUB              1818-04 1924-10 1945-23 2046-36 214954 216153 225851
ALS                      3105-11 2127-25 1848-36 186452 214950 234649
TCC      1847    2048-02 2142-07 2050-22 1953-36 207148 228747 237847
BFF      3309    3210-09 2712-12 2126-25 2153-38 226956 235256 235654
GLD      1820    2129-02 2130-09 2232-22 2345-37 216452 217856 228153
GCK      1619+07 2126+00 2128-06 2344-21 2262-35 208050 219055 229553
GAG      1817+10 2130+03 2229-05 2143-20 2267-32 218748 229553 720053
AMA      1740    1848+02 1954-05 2060-21 2156-34 228549 720350 238948
---------------------------------------------------------------------

DATA BASED ON 230000Z
VALID 231200Z   FOR USE 0900-1800Z. TEMPS NEG ABV 24000
FT  3000    6000   9000    12000   18000   24000  30000  34000  39000
SLC      9900    2814-14 3122-17 3044-27 3051-39 317553 316857 294855
BCE                      3327-12 3248-24 3358-37 326751 327656 305755
LND              3010-12 3018-17 2826-28 2825-40 263155 273357 274653
RKS              2931    2924-17 2924-27 3027-40 283354 283356 274553
GJT              3613-13 3217-17 3429-26 3336-38 313451 303255 294449
FMN              3234-09 3138-15 3121-27 3343-37 324649 294250 284246
ABQ              3150-08 3144-13 3131-28 3155-36 295645 276646 275545
MBW              2821    2823-17 2436-26 2262-38 224254 232957 253751
DEN              3525-09 3523-15 2709-24 1934-36 165953 213755 244050
PUB              0138-09 0117-13 3607-24 1517-36 134252 212950 244447
ALS                      3530-13 3514-26 1406-38 250749 262547 253846
TCC      2854    2845-07 2743-14 2734-28 2634-34 246539 246442 238246
BFF      3324    3316-09 2910-14 2322-25 2138-37 207354 225458 234953
GLD      0611    1421-06 1426-10 1637-21 1945-34 184652 195357 236949
GCK      1719+01 2322-03 2028-09 1746-22 1658-35 185547 207050 228650
GAG      2044+03 2028-02 1845-08 1863-23 2069-32 219641 720747 730048
AMA      2440    2535-07 2221-14 2032-25 2359-29 239238 239244 239947
---------------------------------------------------------------------

DATA BASED ON 230000Z
VALID 240000Z   FOR USE 1800-0500Z. TEMPS NEG ABV 24000
FT  3000    6000   9000    12000   18000   24000  30000  34000  39000
SLC      2006    2716-11 2924-18 2962-26 2979-38 800252 800059 288558
BCE                      2930-10 2843-22 3053-34 296449 297057 287161
LND              2729-11 2928-17 2933-31 2943-43 296055 286756 277053
RKS              2731    2930-18 2944-30 3065-42 308152 297854 287555
GJT              2513-10 2929-15 2964-25 2979-37 299351 298956 288256
FMN              3125-07 3033-10 3057-22 2965-34 297048 287056 277357
ABQ              3126-05 3135-08 3051-20 2960-32 286647 276954 268356
MBW              2741    3030-18 2943-31 2948-42 285251 285552 276452
DEN              3039-09 3140-14 2831-28 2965-40 298151 287853 277751
PUB              3017-06 3131-13 2944-25 3080-37 298048 287753 277751
ALS                      2926-12 3061-22 3075-35 298648 288155 268254
TCC      2813    2816-03 3238-09 3162-21 3072-32 287945 268852 259650
BFF      3126    3228-13 3133-18 2935-30 2734-41 263850 264952 275350
GLD      3435    3341-11 3246-14 2938-25 2632-37 274649 275550 265749
GCK      3345-05 3346-08 3142-13 2941-24 2734-37 285346 266947 258046
GAG      3347-04 3251-07 3154-10 2943-23 2846-35 267641 269645 259946
AMA      3223    3142-05 3146-11 3155-22 2972-32 278441 269348 259848
---------------------------------------------------------------------

This product is updated automatically at approximately 10, 30 and 50
minutes after each hour, 24 hours per day, 7 days per week.  It may
become unavailable at times due to system outages without prior notice.
Users are advised to check the time at the top of the product to ensure
that it is current.  Furthermore, content and format of the product are
subject to change without prior notice.

Comments and suggestions are welcome and should be directed to one of
the addresses or phone numbers shown at the bottom of this page.  In
order to expedite a response to comments or suggestions, be sure to
mention your interest in the hot-air balloon forecast.



USA.gov is the U.S. government's official web portal to all federal, state and local government web resources and services.